PAS121 EPWR-LDZD
Flight info
| Callsign | PAS121 |
|---|---|
| Flight time | 1h 14m |
| Altitude | 32000 |
| Route | ULGIL T707 TOMTI DCT ODLIV DCT BEKVI DCT BUDEX DCT LIMRA DCT KFT DCT BERTA DCT KUDUL |
| Aircraft | B738/M-SDE2E3FGHIRWXY/LB1 |
Departure
| Time | 2026-05-05 10:05 |
|---|---|
| Airport | Copernicus Wrocław Airport (EPWR) |
Arrival
| Time | 2026-05-05 11:19 |
|---|---|
| Airport | Zadar Airport (LDZD) |
| Time | Latitude | Longitude | Altitude | Speed | Heading |
|---|---|---|---|---|---|
| 2026-05-05 09:31 | 51.10888 | 16.87940 | 402 ft | 0 kts | 26° |
| 2026-05-05 09:53 | 51.10874 | 16.87928 | 401 ft | 3 kts | 28° |
| 2026-05-05 09:53 | 51.10862 | 16.87919 | 401 ft | 1 kts | 347° |
| 2026-05-05 09:53 | 51.10855 | 16.87926 | 401 ft | 1 kts | 303° |
| 2026-05-05 09:54 | 51.10851 | 16.87937 | 397 ft | 1 kts | 297° |
| 2026-05-05 09:54 | 51.10849 | 16.87942 | 398 ft | 0 kts | 297° |
| 2026-05-05 09:56 | 51.10849 | 16.87940 | 397 ft | 1 kts | 286° |
| 2026-05-05 09:56 | 51.10850 | 16.87877 | 397 ft | 11 kts | 268° |
| 2026-05-05 09:57 | 51.10875 | 16.87714 | 402 ft | 19 kts | 294° |
| 2026-05-05 09:57 | 51.10937 | 16.87510 | 402 ft | 21 kts | 296° |
| 2026-05-05 09:57 | 51.10909 | 16.87361 | 402 ft | 14 kts | 201° |
| 2026-05-05 09:57 | 51.10800 | 16.87304 | 402 ft | 20 kts | 199° |
| 2026-05-05 09:58 | 51.10711 | 16.87215 | 403 ft | 15 kts | 237° |
| 2026-05-05 09:58 | 51.10718 | 16.87089 | 402 ft | 13 kts | 295° |
| 2026-05-05 09:58 | 51.10765 | 16.86934 | 401 ft | 18 kts | 295° |
| 2026-05-05 09:58 | 51.10822 | 16.86748 | 401 ft | 21 kts | 279° |
| 2026-05-05 09:59 | 51.10861 | 16.86601 | 401 ft | 8 kts | 342° |
| 2026-05-05 09:59 | 51.10866 | 16.86602 | 401 ft | 1 kts | 16° |
| 2026-05-05 09:59 | 51.10867 | 16.86612 | 400 ft | 2 kts | 82° |
| 2026-05-05 09:59 | 51.10859 | 16.86650 | 400 ft | 6 kts | 111° |
| 2026-05-05 10:00 | 51.10854 | 16.86668 | 400 ft | 0 kts | 116° |
| 2026-05-05 10:01 | 51.10834 | 16.86733 | 398 ft | 11 kts | 116° |
| 2026-05-05 10:01 | 51.10785 | 16.86889 | 402 ft | 22 kts | 115° |
| 2026-05-05 10:02 | 51.10695 | 16.87188 | 399 ft | 37 kts | 116° |
| 2026-05-05 10:02 | 51.10560 | 16.87625 | 399 ft | 50 kts | 116° |
| 2026-05-05 10:02 | 51.10391 | 16.88165 | 405 ft | 58 kts | 116° |
| 2026-05-05 10:02 | 51.10196 | 16.88781 | 402 ft | 65 kts | 117° |
| 2026-05-05 10:03 | 51.10002 | 16.89382 | 401 ft | 38 kts | 117° |
| 2026-05-05 10:03 | 51.09907 | 16.89685 | 402 ft | 12 kts | 113° |
| 2026-05-05 10:03 | 51.09908 | 16.89714 | 403 ft | 2 kts | 49° |
| 2026-05-05 10:03 | 51.09923 | 16.89711 | 402 ft | 2 kts | 328° |
| 2026-05-05 10:04 | 51.09928 | 16.89693 | 400 ft | 0 kts | 293° |
| 2026-05-05 10:04 | 51.09972 | 16.89552 | 404 ft | 49 kts | 297° |
| 2026-05-05 10:04 | 51.10273 | 16.88568 | 404 ft | 145 kts | 296° |
| 2026-05-05 10:05 | 51.10779 | 16.86790 | 809 ft | 195 kts | 291° |
| 2026-05-05 10:05 | 51.11326 | 16.84657 | 1642 ft | 222 kts | 295° |
| 2026-05-05 10:05 | 51.12027 | 16.82416 | 2697 ft | 229 kts | 297° |
| 2026-05-05 10:05 | 51.12598 | 16.80022 | 3685 ft | 235 kts | 277° |
| 2026-05-05 10:06 | 51.12380 | 16.77475 | 4403 ft | 239 kts | 241° |
| 2026-05-05 10:06 | 51.11217 | 16.75637 | 5027 ft | 242 kts | 204° |
| 2026-05-05 10:06 | 51.09645 | 16.74733 | 5824 ft | 242 kts | 208° |
| 2026-05-05 10:06 | 51.08508 | 16.72771 | 6571 ft | 246 kts | 240° |
| 2026-05-05 10:07 | 51.07732 | 16.70287 | 7161 ft | 261 kts | 241° |
| 2026-05-05 10:07 | 51.06855 | 16.67658 | 7712 ft | 274 kts | 240° |
| 2026-05-05 10:07 | 51.05928 | 16.65017 | 8492 ft | 274 kts | 239° |
| 2026-05-05 10:07 | 51.04974 | 16.62415 | 8942 ft | 272 kts | 238° |
| 2026-05-05 10:08 | 51.03990 | 16.59810 | 9810 ft | 280 kts | 238° |
| 2026-05-05 10:08 | 51.02927 | 16.57033 | 10078 ft | 308 kts | 237° |
| 2026-05-05 10:08 | 51.01769 | 16.54019 | 10271 ft | 331 kts | 238° |
| 2026-05-05 10:08 | 51.00752 | 16.50628 | 10435 ft | 354 kts | 256° |
| 2026-05-05 10:09 | 51.00772 | 16.46674 | 10886 ft | 368 kts | 282° |
| 2026-05-05 10:09 | 51.01581 | 16.42790 | 11540 ft | 371 kts | 282° |
| 2026-05-05 10:09 | 51.01847 | 16.38748 | 12172 ft | 369 kts | 265° |
| 2026-05-05 10:09 | 51.01580 | 16.34697 | 12851 ft | 370 kts | 261° |
| 2026-05-05 10:10 | 51.01274 | 16.30623 | 13471 ft | 373 kts | 261° |
| 2026-05-05 10:10 | 51.00986 | 16.26509 | 14036 ft | 376 kts | 262° |
| 2026-05-05 10:10 | 51.00717 | 16.22365 | 14595 ft | 379 kts | 262° |
| 2026-05-05 10:10 | 51.00464 | 16.18188 | 15127 ft | 382 kts | 263° |
| 2026-05-05 10:11 | 51.00221 | 16.13965 | 15649 ft | 385 kts | 263° |
| 2026-05-05 10:11 | 50.99985 | 16.09756 | 16146 ft | 388 kts | 263° |
| 2026-05-05 10:11 | 50.99747 | 16.05469 | 16625 ft | 391 kts | 263° |
| 2026-05-05 10:11 | 50.99508 | 16.01145 | 17107 ft | 395 kts | 263° |
| 2026-05-05 10:12 | 50.99266 | 15.96798 | 17589 ft | 397 kts | 263° |
| 2026-05-05 10:12 | 50.99021 | 15.92423 | 18123 ft | 399 kts | 263° |
| 2026-05-05 10:12 | 50.98773 | 15.88016 | 18539 ft | 402 kts | 263° |
| 2026-05-05 10:12 | 50.98525 | 15.83650 | 18946 ft | 404 kts | 263° |
| 2026-05-05 10:13 | 50.98270 | 15.79193 | 19343 ft | 406 kts | 263° |
| 2026-05-05 10:13 | 50.98010 | 15.74667 | 19782 ft | 407 kts | 263° |
| 2026-05-05 10:13 | 50.97750 | 15.70184 | 20185 ft | 409 kts | 263° |
| 2026-05-05 10:13 | 50.97486 | 15.65677 | 20570 ft | 411 kts | 263° |
| 2026-05-05 10:14 | 50.97224 | 15.61215 | 20931 ft | 413 kts | 263° |
| 2026-05-05 10:14 | 50.96955 | 15.56665 | 21294 ft | 415 kts | 263° |
| 2026-05-05 10:14 | 50.96684 | 15.52107 | 21641 ft | 417 kts | 263° |
| 2026-05-05 10:14 | 50.96410 | 15.47519 | 21979 ft | 418 kts | 263° |
| 2026-05-05 10:15 | 50.96133 | 15.42916 | 22304 ft | 420 kts | 263° |
| 2026-05-05 10:15 | 50.95852 | 15.38290 | 22637 ft | 422 kts | 263° |
| 2026-05-05 10:15 | 50.95289 | 15.33742 | 22908 ft | 422 kts | 249° |
| 2026-05-05 10:15 | 50.93894 | 15.29654 | 23212 ft | 424 kts | 234° |
| 2026-05-05 10:16 | 50.91890 | 15.26215 | 23477 ft | 427 kts | 220° |
| 2026-05-05 10:16 | 50.89398 | 15.23618 | 23686 ft | 431 kts | 212° |
| 2026-05-05 10:16 | 50.86789 | 15.21255 | 23908 ft | 433 kts | 211° |
| 2026-05-05 10:16 | 50.84156 | 15.18925 | 24115 ft | 435 kts | 211° |
| 2026-05-05 10:17 | 50.81504 | 15.16575 | 24320 ft | 437 kts | 211° |
| 2026-05-05 10:17 | 50.78858 | 15.14206 | 24541 ft | 438 kts | 211° |
| 2026-05-05 10:17 | 50.76207 | 15.11811 | 24766 ft | 440 kts | 211° |
| 2026-05-05 10:17 | 50.73550 | 15.09397 | 24963 ft | 441 kts | 212° |
| 2026-05-05 10:18 | 50.70887 | 15.06972 | 25159 ft | 443 kts | 212° |
| 2026-05-05 10:18 | 50.68216 | 15.04538 | 25353 ft | 444 kts | 212° |
| 2026-05-05 10:18 | 50.65538 | 15.02103 | 25550 ft | 445 kts | 212° |
| 2026-05-05 10:18 | 50.62852 | 14.99663 | 25755 ft | 446 kts | 212° |
| 2026-05-05 10:19 | 50.60162 | 14.97224 | 25954 ft | 447 kts | 212° |
| 2026-05-05 10:19 | 50.57467 | 14.94784 | 26125 ft | 448 kts | 211° |
| 2026-05-05 10:19 | 50.54762 | 14.92338 | 26298 ft | 449 kts | 211° |
| 2026-05-05 10:19 | 50.52047 | 14.89887 | 26458 ft | 451 kts | 211° |
| 2026-05-05 10:20 | 50.49286 | 14.87530 | 26600 ft | 453 kts | 207° |
| 2026-05-05 10:20 | 50.46340 | 14.85742 | 26739 ft | 457 kts | 198° |
| 2026-05-05 10:20 | 50.43238 | 14.84593 | 26911 ft | 459 kts | 194° |
| 2026-05-05 10:20 | 50.40113 | 14.83549 | 27046 ft | 460 kts | 194° |
| 2026-05-05 10:21 | 50.36977 | 14.82509 | 27195 ft | 461 kts | 194° |
| 2026-05-05 10:21 | 50.33839 | 14.81450 | 27322 ft | 462 kts | 194° |
| 2026-05-05 10:21 | 50.30696 | 14.80369 | 27471 ft | 463 kts | 194° |
| 2026-05-05 10:21 | 50.27555 | 14.79276 | 27678 ft | 462 kts | 194° |
| 2026-05-05 10:22 | 50.24423 | 14.78179 | 27931 ft | 461 kts | 194° |
| 2026-05-05 10:22 | 50.21295 | 14.77083 | 28169 ft | 460 kts | 194° |
| 2026-05-05 10:22 | 50.18216 | 14.76005 | 28351 ft | 460 kts | 194° |
| 2026-05-05 10:22 | 50.15092 | 14.74913 | 28544 ft | 460 kts | 194° |
| 2026-05-05 10:23 | 50.11976 | 14.73827 | 28784 ft | 459 kts | 194° |
| 2026-05-05 10:23 | 50.08860 | 14.72743 | 29000 ft | 458 kts | 194° |
| 2026-05-05 10:23 | 50.05749 | 14.71660 | 29230 ft | 458 kts | 194° |
| 2026-05-05 10:23 | 50.02642 | 14.70575 | 29461 ft | 457 kts | 194° |
| 2026-05-05 10:24 | 49.99539 | 14.69488 | 29687 ft | 457 kts | 194° |
| 2026-05-05 10:24 | 49.96440 | 14.68403 | 29888 ft | 456 kts | 194° |
| 2026-05-05 10:24 | 49.93347 | 14.67320 | 30085 ft | 456 kts | 194° |
| 2026-05-05 10:24 | 49.90258 | 14.66240 | 30296 ft | 455 kts | 194° |
| 2026-05-05 10:25 | 49.87178 | 14.65166 | 30532 ft | 453 kts | 194° |
| 2026-05-05 10:25 | 49.84108 | 14.64097 | 30745 ft | 452 kts | 194° |
| 2026-05-05 10:25 | 49.81039 | 14.63030 | 30938 ft | 451 kts | 194° |
| 2026-05-05 10:25 | 49.77978 | 14.61968 | 31149 ft | 450 kts | 194° |
| 2026-05-05 10:26 | 49.74925 | 14.60909 | 31360 ft | 449 kts | 194° |
| 2026-05-05 10:26 | 49.71883 | 14.59855 | 31575 ft | 448 kts | 195° |
| 2026-05-05 10:26 | 49.68842 | 14.58804 | 31775 ft | 447 kts | 195° |
| 2026-05-05 10:26 | 49.65806 | 14.57755 | 31816 ft | 448 kts | 195° |
| 2026-05-05 10:27 | 49.59726 | 14.55659 | 31830 ft | 447 kts | 194° |
| 2026-05-05 10:27 | 49.53658 | 14.53572 | 31819 ft | 446 kts | 194° |
| 2026-05-05 10:28 | 49.47597 | 14.51493 | 31827 ft | 446 kts | 194° |
| 2026-05-05 10:28 | 49.41551 | 14.49424 | 31832 ft | 445 kts | 194° |
| 2026-05-05 10:29 | 49.35500 | 14.47359 | 31832 ft | 445 kts | 194° |
| 2026-05-05 10:29 | 49.29456 | 14.45301 | 31826 ft | 445 kts | 194° |
| 2026-05-05 10:30 | 49.23402 | 14.43245 | 31823 ft | 445 kts | 194° |
| 2026-05-05 10:30 | 49.17346 | 14.41194 | 31814 ft | 446 kts | 194° |
| 2026-05-05 10:31 | 49.11287 | 14.39147 | 31822 ft | 446 kts | 194° |
| 2026-05-05 10:31 | 49.05216 | 14.37100 | 31809 ft | 447 kts | 194° |
| 2026-05-05 10:32 | 48.99140 | 14.35057 | 31812 ft | 447 kts | 194° |
| 2026-05-05 10:32 | 48.92987 | 14.33701 | 31817 ft | 450 kts | 181° |
| 2026-05-05 10:33 | 48.86725 | 14.34350 | 31815 ft | 451 kts | 177° |
| 2026-05-05 10:33 | 48.80467 | 14.35130 | 31810 ft | 452 kts | 178° |
| 2026-05-05 10:34 | 48.74238 | 14.35855 | 31821 ft | 452 kts | 178° |
| 2026-05-05 10:34 | 48.67961 | 14.36547 | 31818 ft | 453 kts | 178° |
| 2026-05-05 10:35 | 48.61673 | 14.37229 | 31809 ft | 453 kts | 178° |
| 2026-05-05 10:35 | 48.55387 | 14.37910 | 31817 ft | 453 kts | 178° |
| 2026-05-05 10:36 | 48.49100 | 14.38591 | 31818 ft | 453 kts | 178° |
| 2026-05-05 10:36 | 48.42814 | 14.39271 | 31824 ft | 453 kts | 178° |
| 2026-05-05 10:37 | 48.37586 | 14.39835 | 31811 ft | 453 kts | 178° |
| 2026-05-05 10:37 | 48.31297 | 14.40513 | 31829 ft | 453 kts | 178° |
| 2026-05-05 10:38 | 48.25020 | 14.41186 | 31822 ft | 453 kts | 179° |
| 2026-05-05 10:38 | 48.18731 | 14.41860 | 31823 ft | 453 kts | 179° |
| 2026-05-05 10:39 | 48.12442 | 14.42531 | 31824 ft | 456 kts | 179° |
| 2026-05-05 10:39 | 48.06088 | 14.43208 | 31822 ft | 458 kts | 179° |
| 2026-05-05 10:40 | 47.99717 | 14.43886 | 31814 ft | 460 kts | 179° |
| 2026-05-05 10:40 | 47.93325 | 14.44564 | 31814 ft | 461 kts | 179° |
| 2026-05-05 10:41 | 47.86927 | 14.45159 | 31821 ft | 461 kts | 180° |
| 2026-05-05 10:41 | 47.80520 | 14.45575 | 31819 ft | 461 kts | 180° |
| 2026-05-05 10:42 | 47.71004 | 14.46176 | 31838 ft | 461 kts | 180° |
| 2026-05-05 10:43 | 47.64592 | 14.46603 | 31839 ft | 461 kts | 180° |
| 2026-05-05 10:43 | 47.58185 | 14.47038 | 31852 ft | 461 kts | 180° |
| 2026-05-05 10:44 | 47.51770 | 14.47474 | 31855 ft | 461 kts | 180° |
| 2026-05-05 10:44 | 47.45365 | 14.47906 | 31875 ft | 459 kts | 180° |
| 2026-05-05 10:45 | 47.38984 | 14.48337 | 31898 ft | 459 kts | 180° |
| 2026-05-05 10:45 | 47.32604 | 14.48764 | 31904 ft | 459 kts | 180° |
| 2026-05-05 10:46 | 47.26228 | 14.49191 | 31899 ft | 458 kts | 180° |
| 2026-05-05 10:46 | 47.19869 | 14.49614 | 31907 ft | 457 kts | 180° |
| 2026-05-05 10:47 | 47.13522 | 14.50037 | 31915 ft | 456 kts | 180° |
| 2026-05-05 10:47 | 47.07214 | 14.50457 | 31913 ft | 455 kts | 180° |
| 2026-05-05 10:48 | 47.00888 | 14.50875 | 31911 ft | 455 kts | 180° |
| 2026-05-05 10:48 | 46.94577 | 14.51293 | 31928 ft | 454 kts | 180° |
| 2026-05-05 10:49 | 46.88271 | 14.51710 | 31950 ft | 453 kts | 180° |
| 2026-05-05 10:49 | 46.81971 | 14.52124 | 31953 ft | 453 kts | 180° |
| 2026-05-05 10:50 | 46.75671 | 14.52538 | 31955 ft | 453 kts | 179° |
| 2026-05-05 10:50 | 46.69375 | 14.52950 | 31962 ft | 453 kts | 179° |
| 2026-05-05 10:51 | 46.63084 | 14.53541 | 31960 ft | 455 kts | 173° |
| 2026-05-05 10:51 | 46.56992 | 14.56121 | 31977 ft | 458 kts | 162° |
| 2026-05-05 10:52 | 46.51024 | 14.59371 | 31969 ft | 458 kts | 162° |
| 2026-05-05 10:52 | 46.45012 | 14.62442 | 31986 ft | 457 kts | 166° |
| 2026-05-05 10:53 | 46.38835 | 14.64219 | 32011 ft | 455 kts | 173° |
| 2026-05-05 10:53 | 46.32596 | 14.65722 | 32026 ft | 455 kts | 173° |
| 2026-05-05 10:54 | 46.26423 | 14.67234 | 32010 ft | 450 kts | 173° |
| 2026-05-05 10:54 | 46.20291 | 14.68775 | 32016 ft | 446 kts | 173° |
| 2026-05-05 10:54 | 46.17254 | 14.69543 | 31782 ft | 439 kts | 173° |
| 2026-05-05 10:55 | 46.14271 | 14.70300 | 31048 ft | 432 kts | 173° |
| 2026-05-05 10:55 | 46.11299 | 14.71050 | 29945 ft | 436 kts | 173° |
| 2026-05-05 10:55 | 46.08294 | 14.71806 | 28530 ft | 442 kts | 172° |
| 2026-05-05 10:55 | 46.05242 | 14.72571 | 27121 ft | 447 kts | 172° |
| 2026-05-05 10:56 | 46.02179 | 14.73341 | 26286 ft | 441 kts | 173° |
| 2026-05-05 10:56 | 45.99151 | 14.74102 | 25790 ft | 448 kts | 173° |
| 2026-05-05 10:56 | 45.96069 | 14.74873 | 25354 ft | 460 kts | 172° |
| 2026-05-05 10:56 | 45.92969 | 14.75648 | 24922 ft | 463 kts | 172° |
| 2026-05-05 10:57 | 45.89771 | 14.76450 | 24507 ft | 457 kts | 172° |
| 2026-05-05 10:57 | 45.86676 | 14.77227 | 24196 ft | 451 kts | 173° |
| 2026-05-05 10:57 | 45.83660 | 14.77983 | 23859 ft | 447 kts | 172° |
| 2026-05-05 10:57 | 45.80773 | 14.78704 | 23518 ft | 445 kts | 172° |
| 2026-05-05 10:58 | 45.77740 | 14.79460 | 23116 ft | 444 kts | 173° |
| 2026-05-05 10:58 | 45.74699 | 14.80217 | 22718 ft | 443 kts | 172° |
| 2026-05-05 10:58 | 45.71670 | 14.80969 | 22324 ft | 441 kts | 172° |
| 2026-05-05 10:58 | 45.68636 | 14.81722 | 21929 ft | 444 kts | 172° |
| 2026-05-05 10:59 | 45.65610 | 14.82473 | 21538 ft | 437 kts | 173° |
| 2026-05-05 10:59 | 45.62671 | 14.83203 | 21179 ft | 432 kts | 173° |
| 2026-05-05 10:59 | 45.59724 | 14.83933 | 20834 ft | 432 kts | 173° |
| 2026-05-05 10:59 | 45.56783 | 14.84660 | 20486 ft | 430 kts | 173° |
| 2026-05-05 11:00 | 45.53874 | 14.85378 | 20147 ft | 429 kts | 173° |
| 2026-05-05 11:00 | 45.50938 | 14.86102 | 19809 ft | 427 kts | 173° |
| 2026-05-05 11:00 | 45.48015 | 14.86822 | 19562 ft | 425 kts | 173° |
| 2026-05-05 11:00 | 45.45131 | 14.87533 | 19321 ft | 424 kts | 173° |
| 2026-05-05 11:01 | 45.42226 | 14.88247 | 19082 ft | 424 kts | 173° |
| 2026-05-05 11:01 | 45.39341 | 14.88955 | 18846 ft | 426 kts | 173° |
| 2026-05-05 11:01 | 45.36418 | 14.89672 | 18589 ft | 428 kts | 173° |
| 2026-05-05 11:01 | 45.33431 | 14.90402 | 18338 ft | 443 kts | 173° |
| 2026-05-05 11:02 | 45.30422 | 14.91139 | 18035 ft | 432 kts | 173° |
| 2026-05-05 11:02 | 45.27500 | 14.91857 | 17714 ft | 423 kts | 172° |
| 2026-05-05 11:02 | 45.24621 | 14.92564 | 17330 ft | 416 kts | 172° |
| 2026-05-05 11:02 | 45.21780 | 14.93259 | 16917 ft | 413 kts | 172° |
| 2026-05-05 11:03 | 45.18967 | 14.93945 | 16520 ft | 411 kts | 172° |
| 2026-05-05 11:03 | 45.16165 | 14.94627 | 16116 ft | 409 kts | 172° |
| 2026-05-05 11:03 | 45.13373 | 14.95306 | 15727 ft | 407 kts | 172° |
| 2026-05-05 11:03 | 45.10588 | 14.95983 | 15325 ft | 405 kts | 172° |
| 2026-05-05 11:04 | 45.07831 | 14.96654 | 15067 ft | 399 kts | 172° |
| 2026-05-05 11:04 | 45.05103 | 14.97317 | 14708 ft | 395 kts | 172° |
| 2026-05-05 11:04 | 45.02433 | 14.97965 | 14356 ft | 384 kts | 173° |
| 2026-05-05 11:04 | 44.99843 | 14.98595 | 13985 ft | 371 kts | 173° |
| 2026-05-05 11:05 | 44.97337 | 14.99203 | 13596 ft | 360 kts | 173° |
| 2026-05-05 11:05 | 44.94897 | 14.99795 | 13205 ft | 351 kts | 173° |
| 2026-05-05 11:05 | 44.92523 | 15.00368 | 12814 ft | 342 kts | 173° |
| 2026-05-05 11:05 | 44.90199 | 15.00931 | 12420 ft | 335 kts | 173° |
| 2026-05-05 11:06 | 44.87951 | 15.01473 | 12053 ft | 328 kts | 173° |
| 2026-05-05 11:06 | 44.85728 | 15.02007 | 11742 ft | 320 kts | 173° |
| 2026-05-05 11:06 | 44.83560 | 15.02528 | 11444 ft | 313 kts | 174° |
| 2026-05-05 11:06 | 44.81445 | 15.03037 | 11161 ft | 305 kts | 173° |
| 2026-05-05 11:07 | 44.79378 | 15.03534 | 10935 ft | 298 kts | 173° |
| 2026-05-05 11:07 | 44.77354 | 15.04020 | 10692 ft | 292 kts | 174° |
| 2026-05-05 11:07 | 44.75369 | 15.04496 | 10446 ft | 287 kts | 173° |
| 2026-05-05 11:07 | 44.73425 | 15.04962 | 10195 ft | 281 kts | 173° |
| 2026-05-05 11:08 | 44.71522 | 15.05418 | 9948 ft | 274 kts | 173° |
| 2026-05-05 11:08 | 44.69660 | 15.05865 | 9776 ft | 269 kts | 173° |
| 2026-05-05 11:08 | 44.67815 | 15.06224 | 9540 ft | 266 kts | 184° |
| 2026-05-05 11:08 | 44.66033 | 15.05710 | 9326 ft | 259 kts | 200° |
| 2026-05-05 11:09 | 44.64404 | 15.04691 | 9103 ft | 255 kts | 207° |
| 2026-05-05 11:09 | 44.62803 | 15.03486 | 8837 ft | 272 kts | 208° |
| 2026-05-05 11:09 | 44.61149 | 15.02213 | 8591 ft | 275 kts | 208° |
| 2026-05-05 11:09 | 44.59482 | 15.00937 | 8342 ft | 271 kts | 207° |
| 2026-05-05 11:10 | 44.57834 | 14.99694 | 8080 ft | 267 kts | 207° |
| 2026-05-05 11:10 | 44.56210 | 14.98481 | 7811 ft | 263 kts | 207° |
| 2026-05-05 11:10 | 44.54627 | 14.97305 | 7565 ft | 258 kts | 206° |
| 2026-05-05 11:10 | 44.53052 | 14.96135 | 7329 ft | 255 kts | 206° |
| 2026-05-05 11:11 | 44.51491 | 14.94975 | 7072 ft | 253 kts | 206° |
| 2026-05-05 11:11 | 44.49926 | 14.93853 | 6758 ft | 253 kts | 204° |
| 2026-05-05 11:11 | 44.48367 | 14.92724 | 6510 ft | 251 kts | 206° |
| 2026-05-05 11:11 | 44.46835 | 14.91569 | 6285 ft | 250 kts | 206° |
| 2026-05-05 11:12 | 44.45260 | 14.90704 | 6204 ft | 245 kts | 186° |
| 2026-05-05 11:12 | 44.43595 | 14.90921 | 6212 ft | 245 kts | 164° |
| 2026-05-05 11:12 | 44.42077 | 14.92017 | 6186 ft | 250 kts | 144° |
| 2026-05-05 11:12 | 44.40786 | 14.93669 | 6209 ft | 253 kts | 138° |
| 2026-05-05 11:13 | 44.39543 | 14.95422 | 6199 ft | 254 kts | 138° |
| 2026-05-05 11:13 | 44.38300 | 14.97170 | 6119 ft | 254 kts | 138° |
| 2026-05-05 11:13 | 44.37054 | 14.98902 | 6014 ft | 250 kts | 139° |
| 2026-05-05 11:13 | 44.35885 | 15.00515 | 6005 ft | 245 kts | 139° |
| 2026-05-05 11:14 | 44.34657 | 15.02202 | 5741 ft | 251 kts | 139° |
| 2026-05-05 11:14 | 44.33411 | 15.03909 | 5469 ft | 249 kts | 139° |
| 2026-05-05 11:14 | 44.32181 | 15.05594 | 5194 ft | 247 kts | 138° |
| 2026-05-05 11:14 | 44.30961 | 15.07265 | 4940 ft | 245 kts | 138° |
| 2026-05-05 11:15 | 44.29738 | 15.08936 | 4668 ft | 246 kts | 138° |
| 2026-05-05 11:15 | 44.28514 | 15.10606 | 4362 ft | 245 kts | 138° |
| 2026-05-05 11:15 | 44.27306 | 15.12257 | 4099 ft | 242 kts | 138° |
| 2026-05-05 11:15 | 44.26108 | 15.13896 | 3845 ft | 241 kts | 137° |
| 2026-05-05 11:16 | 44.24924 | 15.15551 | 3596 ft | 241 kts | 138° |
| 2026-05-05 11:16 | 44.23730 | 15.17196 | 3339 ft | 241 kts | 138° |
| 2026-05-05 11:16 | 44.22525 | 15.18837 | 3052 ft | 243 kts | 138° |
| 2026-05-05 11:16 | 44.21307 | 15.20483 | 2769 ft | 245 kts | 138° |
| 2026-05-05 11:17 | 44.20086 | 15.22131 | 2450 ft | 242 kts | 137° |
| 2026-05-05 11:17 | 44.18909 | 15.23723 | 2230 ft | 230 kts | 138° |
| 2026-05-05 11:17 | 44.17783 | 15.25251 | 1961 ft | 222 kts | 138° |
| 2026-05-05 11:17 | 44.16699 | 15.26729 | 1676 ft | 212 kts | 137° |
| 2026-05-05 11:18 | 44.15683 | 15.28099 | 1397 ft | 193 kts | 138° |
| 2026-05-05 11:18 | 44.14770 | 15.29326 | 1146 ft | 173 kts | 138° |
| 2026-05-05 11:18 | 44.13948 | 15.30438 | 930 ft | 158 kts | 137° |
| 2026-05-05 11:18 | 44.13197 | 15.31456 | 743 ft | 143 kts | 137° |
| 2026-05-05 11:19 | 44.12518 | 15.32408 | 534 ft | 130 kts | 136° |
| 2026-05-05 11:19 | 44.11954 | 15.33176 | 467 ft | 103 kts | 140° |
| 2026-05-05 11:19 | 44.11444 | 15.33834 | 268 ft | 95 kts | 138° |
| 2026-05-05 11:19 | 44.11068 | 15.34340 | 261 ft | 41 kts | 134° |
| 2026-05-05 11:20 | 44.10858 | 15.34628 | 264 ft | 41 kts | 136° |
| 2026-05-05 11:20 | 44.10663 | 15.34890 | 266 ft | 37 kts | 135° |
| 2026-05-05 11:20 | 44.10482 | 15.35136 | 265 ft | 36 kts | 136° |
| 2026-05-05 11:20 | 44.10311 | 15.35367 | 265 ft | 33 kts | 136° |
| 2026-05-05 11:21 | 44.10197 | 15.35520 | 267 ft | 13 kts | 136° |
| 2026-05-05 11:21 | 44.10114 | 15.35631 | 268 ft | 19 kts | 136° |
| 2026-05-05 11:21 | 44.10004 | 15.35677 | 269 ft | 18 kts | 217° |
| 2026-05-05 11:21 | 44.09916 | 15.35555 | 269 ft | 18 kts | 217° |
| 2026-05-05 11:22 | 44.09798 | 15.35536 | 269 ft | 17 kts | 177° |
| 2026-05-05 11:22 | 44.09706 | 15.35528 | 269 ft | 1 kts | 217° |
| 2026-05-05 11:22 | 44.09701 | 15.35509 | 269 ft | 5 kts | 239° |
| 2026-05-05 11:22 | 44.09655 | 15.35471 | 269 ft | 1 kts | 209° |
| 2026-05-05 11:23 | 44.09652 | 15.35441 | 269 ft | 0 kts | 285° |
| 2026-05-05 11:23 | 44.09671 | 15.35423 | 269 ft | 0 kts | 334° |